sensor_id;sensor_type;location;lat;lon;timestamp;P1;durP1;ratioP1;P2;durP2;ratioP2
82930;SDS011;72705;53.346;10.248;2023-12-29T00:00:54;13.38;;;3.10;;
82930;SDS011;72705;53.346;10.248;2023-12-29T00:03:21;6.00;;;3.13;;
82930;SDS011;72705;53.346;10.248;2023-12-29T00:05:47;6.65;;;2.85;;
82930;SDS011;72705;53.346;10.248;2023-12-29T00:08:13;9.77;;;3.30;;
82930;SDS011;72705;53.346;10.248;2023-12-29T00:10:39;11.65;;;3.10;;
82930;SDS011;72705;53.346;10.248;2023-12-29T00:13:04;9.07;;;3.10;;
82930;SDS011;72705;53.346;10.248;2023-12-29T00:15:32;11.43;;;4.63;;
82930;SDS011;72705;53.346;10.248;2023-12-29T00:17:58;10.27;;;2.65;;
82930;SDS011;72705;53.346;10.248;2023-12-29T00:20:23;8.02;;;3.03;;
82930;SDS011;72705;53.346;10.248;2023-12-29T00:22:49;6.90;;;2.58;;
82930;SDS011;72705;53.346;10.248;2023-12-29T00:25:14;10.80;;;3.93;;
82930;SDS011;72705;53.346;10.248;2023-12-29T00:27:40;8.93;;;2.90;;
82930;SDS011;72705;53.346;10.248;2023-12-29T00:30:06;10.00;;;3.30;;
82930;SDS011;72705;53.346;10.248;2023-12-29T00:32:33;11.35;;;3.28;;
82930;SDS011;72705;53.346;10.248;2023-12-29T00:34:59;12.52;;;3.58;;
82930;SDS011;72705;53.346;10.248;2023-12-29T00:37:24;8.60;;;3.08;;
82930;SDS011;72705;53.346;10.248;2023-12-29T00:39:50;7.72;;;3.08;;
82930;SDS011;72705;53.346;10.248;2023-12-29T00:42:15;8.18;;;3.03;;
82930;SDS011;72705;53.346;10.248;2023-12-29T00:44:41;10.30;;;3.15;;
82930;SDS011;72705;53.346;10.248;2023-12-29T00:47:07;5.82;;;2.67;;
82930;SDS011;72705;53.346;10.248;2023-12-29T00:49:32;11.85;;;3.47;;
82930;SDS011;72705;53.346;10.248;2023-12-29T00:51:58;9.55;;;3.35;;
82930;SDS011;72705;53.346;10.248;2023-12-29T00:54:23;10.65;;;3.55;;
82930;SDS011;72705;53.346;10.248;2023-12-29T00:56:49;9.20;;;3.87;;
82930;SDS011;72705;53.346;10.248;2023-12-29T00:59:14;9.70;;;3.10;;
82930;SDS011;72705;53.346;10.248;2023-12-29T01:01:40;7.72;;;3.78;;
82930;SDS011;72705;53.346;10.248;2023-12-29T01:04:05;12.38;;;3.25;;
82930;SDS011;72705;53.346;10.248;2023-12-29T01:06:31;9.27;;;3.20;;
82930;SDS011;72705;53.346;10.248;2023-12-29T01:08:59;11.65;;;3.55;;
82930;SDS011;72705;53.346;10.248;2023-12-29T01:11:24;8.57;;;3.00;;
82930;SDS011;72705;53.346;10.248;2023-12-29T01:13:50;10.63;;;3.60;;
82930;SDS011;72705;53.346;10.248;2023-12-29T01:16:15;6.95;;;3.53;;
82930;SDS011;72705;53.346;10.248;2023-12-29T01:18:41;7.25;;;3.13;;
82930;SDS011;72705;53.346;10.248;2023-12-29T01:21:06;15.32;;;3.70;;
82930;SDS011;72705;53.346;10.248;2023-12-29T01:23:32;7.10;;;3.00;;
82930;SDS011;72705;53.346;10.248;2023-12-29T01:25:57;9.67;;;3.97;;
82930;SDS011;72705;53.346;10.248;2023-12-29T01:28:23;4.90;;;2.70;;
82930;SDS011;72705;53.346;10.248;2023-12-29T01:30:50;7.15;;;3.00;;
82930;SDS011;72705;53.346;10.248;2023-12-29T01:33:16;6.93;;;2.80;;
82930;SDS011;72705;53.346;10.248;2023-12-29T01:35:42;9.70;;;3.47;;
82930;SDS011;72705;53.346;10.248;2023-12-29T01:38:10;8.10;;;3.17;;
82930;SDS011;72705;53.346;10.248;2023-12-29T01:40:45;6.63;;;3.10;;
82930;SDS011;72705;53.346;10.248;2023-12-29T01:43:11;7.13;;;3.00;;
82930;SDS011;72705;53.346;10.248;2023-12-29T01:45:36;5.03;;;2.90;;
82930;SDS011;72705;53.346;10.248;2023-12-29T01:48:02;8.02;;;3.28;;
82930;SDS011;72705;53.346;10.248;2023-12-29T01:50:27;9.00;;;3.28;;
82930;SDS011;72705;53.346;10.248;2023-12-29T01:52:54;6.13;;;2.92;;
82930;SDS011;72705;53.346;10.248;2023-12-29T01:55:22;6.88;;;3.03;;
82930;SDS011;72705;53.346;10.248;2023-12-29T01:57:50;6.80;;;3.78;;
82930;SDS011;72705;53.346;10.248;2023-12-29T02:00:16;5.13;;;2.78;;
82930;SDS011;72705;53.346;10.248;2023-12-29T02:02:43;10.05;;;3.22;;
82930;SDS011;72705;53.346;10.248;2023-12-29T02:05:12;12.60;;;3.53;;
82930;SDS011;72705;53.346;10.248;2023-12-29T02:07:41;8.73;;;3.28;;
82930;SDS011;72705;53.346;10.248;2023-12-29T02:10:07;8.70;;;3.25;;
82930;SDS011;72705;53.346;10.248;2023-12-29T02:12:39;9.20;;;3.20;;
82930;SDS011;72705;53.346;10.248;2023-12-29T02:15:04;7.78;;;3.00;;
82930;SDS011;72705;53.346;10.248;2023-12-29T02:17:33;10.38;;;3.13;;
82930;SDS011;72705;53.346;10.248;2023-12-29T02:20:04;5.63;;;2.97;;
82930;SDS011;72705;53.346;10.248;2023-12-29T02:22:30;6.97;;;2.60;;
82930;SDS011;72705;53.346;10.248;2023-12-29T02:24:55;6.82;;;3.20;;
82930;SDS011;72705;53.346;10.248;2023-12-29T02:32:46;7.22;;;3.22;;
82930;SDS011;72705;53.346;10.248;2023-12-29T02:35:14;5.50;;;3.22;;
82930;SDS011;72705;53.346;10.248;2023-12-29T02:37:45;7.70;;;3.30;;
82930;SDS011;72705;53.346;10.248;2023-12-29T02:40:12;6.78;;;3.15;;
82930;SDS011;72705;53.346;10.248;2023-12-29T02:42:44;9.57;;;2.97;;
82930;SDS011;72705;53.346;10.248;2023-12-29T02:45:15;8.90;;;2.78;;
82930;SDS011;72705;53.346;10.248;2023-12-29T02:47:42;9.38;;;3.45;;
82930;SDS011;72705;53.346;10.248;2023-12-29T02:50:08;5.97;;;3.10;;
82930;SDS011;72705;53.346;10.248;2023-12-29T02:52:34;9.85;;;3.20;;
82930;SDS011;72705;53.346;10.248;2023-12-29T02:54:59;9.00;;;3.42;;
82930;SDS011;72705;53.346;10.248;2023-12-29T02:57:25;5.97;;;3.38;;
82930;SDS011;72705;53.346;10.248;2023-12-29T02:59:50;5.95;;;3.50;;
82930;SDS011;72705;53.346;10.248;2023-12-29T03:02:16;5.95;;;2.70;;
82930;SDS011;72705;53.346;10.248;2023-12-29T03:04:41;6.22;;;3.78;;
82930;SDS011;72705;53.346;10.248;2023-12-29T03:07:07;8.02;;;3.78;;
82930;SDS011;72705;53.346;10.248;2023-12-29T03:09:33;4.63;;;2.80;;
82930;SDS011;72705;53.346;10.248;2023-12-29T03:11:59;5.97;;;2.78;;
82930;SDS011;72705;53.346;10.248;2023-12-29T03:14:25;6.22;;;3.05;;
82930;SDS011;72705;53.346;10.248;2023-12-29T03:16:50;10.38;;;4.00;;
82930;SDS011;72705;53.346;10.248;2023-12-29T03:19:16;6.90;;;3.17;;
82930;SDS011;72705;53.346;10.248;2023-12-29T03:21:42;10.50;;;3.88;;
82930;SDS011;72705;53.346;10.248;2023-12-29T03:24:07;8.13;;;3.58;;
82930;SDS011;72705;53.346;10.248;2023-12-29T03:26:33;8.25;;;4.07;;
82930;SDS011;72705;53.346;10.248;2023-12-29T03:28:58;9.05;;;4.72;;
82930;SDS011;72705;53.346;10.248;2023-12-29T03:31:24;8.20;;;4.23;;
82930;SDS011;72705;53.346;10.248;2023-12-29T03:33:49;16.52;;;4.70;;
82930;SDS011;72705;53.346;10.248;2023-12-29T03:36:15;13.30;;;4.95;;
82930;SDS011;72705;53.346;10.248;2023-12-29T03:38:40;11.75;;;4.25;;
82930;SDS011;72705;53.346;10.248;2023-12-29T03:41:06;9.80;;;5.35;;
82930;SDS011;72705;53.346;10.248;2023-12-29T03:43:32;15.95;;;5.68;;
82930;SDS011;72705;53.346;10.248;2023-12-29T03:45:57;9.47;;;4.40;;
82930;SDS011;72705;53.346;10.248;2023-12-29T03:48:23;16.42;;;5.18;;
82930;SDS011;72705;53.346;10.248;2023-12-29T03:50:51;12.32;;;5.30;;
82930;SDS011;72705;53.346;10.248;2023-12-29T03:53:17;11.02;;;5.07;;
82930;SDS011;72705;53.346;10.248;2023-12-29T03:55:44;12.05;;;5.97;;
82930;SDS011;72705;53.346;10.248;2023-12-29T03:58:09;11.35;;;6.00;;
82930;SDS011;72705;53.346;10.248;2023-12-29T04:00:35;7.90;;;4.72;;
82930;SDS011;72705;53.346;10.248;2023-12-29T04:03:01;10.32;;;5.13;;
82930;SDS011;72705;53.346;10.248;2023-12-29T04:05:26;14.73;;;5.03;;
82930;SDS011;72705;53.346;10.248;2023-12-29T04:07:52;16.13;;;6.15;;
82930;SDS011;72705;53.346;10.248;2023-12-29T04:10:18;10.88;;;4.88;;
82930;SDS011;72705;53.346;10.248;2023-12-29T04:12:43;13.10;;;4.05;;
82930;SDS011;72705;53.346;10.248;2023-12-29T04:15:09;14.40;;;4.70;;
82930;SDS011;72705;53.346;10.248;2023-12-29T04:17:34;12.85;;;4.88;;
82930;SDS011;72705;53.346;10.248;2023-12-29T04:20:00;12.73;;;5.00;;
82930;SDS011;72705;53.346;10.248;2023-12-29T04:22:25;10.25;;;4.50;;
82930;SDS011;72705;53.346;10.248;2023-12-29T04:24:50;11.23;;;4.30;;
82930;SDS011;72705;53.346;10.248;2023-12-29T04:27:16;10.18;;;4.63;;
82930;SDS011;72705;53.346;10.248;2023-12-29T04:29:43;14.27;;;5.70;;
82930;SDS011;72705;53.346;10.248;2023-12-29T04:32:09;12.88;;;3.92;;
82930;SDS011;72705;53.346;10.248;2023-12-29T04:34:34;10.02;;;2.33;;
82930;SDS011;72705;53.346;10.248;2023-12-29T04:37:00;2.30;;;1.50;;
82930;SDS011;72705;53.346;10.248;2023-12-29T04:39:25;3.97;;;1.70;;
82930;SDS011;72705;53.346;10.248;2023-12-29T04:41:51;3.17;;;1.63;;
82930;SDS011;72705;53.346;10.248;2023-12-29T04:44:16;2.08;;;1.70;;
82930;SDS011;72705;53.346;10.248;2023-12-29T04:46:42;2.22;;;1.50;;
82930;SDS011;72705;53.346;10.248;2023-12-29T04:49:07;2.40;;;1.30;;
82930;SDS011;72705;53.346;10.248;2023-12-29T04:51:33;3.47;;;1.63;;
82930;SDS011;72705;53.346;10.248;2023-12-29T04:54:01;2.47;;;1.45;;
82930;SDS011;72705;53.346;10.248;2023-12-29T04:56:27;1.85;;;1.55;;
82930;SDS011;72705;53.346;10.248;2023-12-29T04:58:52;2.33;;;1.60;;
82930;SDS011;72705;53.346;10.248;2023-12-29T05:01:18;2.13;;;1.40;;
82930;SDS011;72705;53.346;10.248;2023-12-29T05:03:46;2.07;;;1.50;;
82930;SDS011;72705;53.346;10.248;2023-12-29T05:06:11;5.45;;;1.73;;
82930;SDS011;72705;53.346;10.248;2023-12-29T05:08:37;2.03;;;1.30;;
82930;SDS011;72705;53.346;10.248;2023-12-29T05:11:02;1.60;;;1.25;;
82930;SDS011;72705;53.346;10.248;2023-12-29T05:13:29;2.17;;;1.30;;
82930;SDS011;72705;53.346;10.248;2023-12-29T05:15:54;2.97;;;1.30;;
82930;SDS011;72705;53.346;10.248;2023-12-29T05:18:20;3.50;;;1.60;;
82930;SDS011;72705;53.346;10.248;2023-12-29T05:20:45;3.58;;;1.50;;
82930;SDS011;72705;53.346;10.248;2023-12-29T05:23:13;7.88;;;2.65;;
82930;SDS011;72705;53.346;10.248;2023-12-29T05:25:39;5.40;;;1.83;;
82930;SDS011;72705;53.346;10.248;2023-12-29T05:28:04;2.78;;;1.90;;
82930;SDS011;72705;53.346;10.248;2023-12-29T05:30:30;4.97;;;2.08;;
82930;SDS011;72705;53.346;10.248;2023-12-29T05:32:56;5.05;;;1.73;;
82930;SDS011;72705;53.346;10.248;2023-12-29T05:35:22;3.70;;;1.80;;
82930;SDS011;72705;53.346;10.248;2023-12-29T05:37:47;4.25;;;1.50;;
82930;SDS011;72705;53.346;10.248;2023-12-29T05:40:16;4.05;;;1.70;;
82930;SDS011;72705;53.346;10.248;2023-12-29T05:42:41;4.22;;;1.60;;
82930;SDS011;72705;53.346;10.248;2023-12-29T05:45:07;2.03;;;1.55;;
82930;SDS011;72705;53.346;10.248;2023-12-29T05:47:33;4.75;;;1.60;;
82930;SDS011;72705;53.346;10.248;2023-12-29T05:49:58;4.57;;;1.70;;
82930;SDS011;72705;53.346;10.248;2023-12-29T05:52:24;6.80;;;2.15;;
82930;SDS011;72705;53.346;10.248;2023-12-29T05:54:49;4.95;;;1.88;;
82930;SDS011;72705;53.346;10.248;2023-12-29T05:57:15;5.65;;;1.60;;
82930;SDS011;72705;53.346;10.248;2023-12-29T05:59:41;4.28;;;2.17;;
82930;SDS011;72705;53.346;10.248;2023-12-29T06:02:06;4.30;;;1.85;;
82930;SDS011;72705;53.346;10.248;2023-12-29T06:04:32;5.30;;;1.95;;
82930;SDS011;72705;53.346;10.248;2023-12-29T06:06:57;4.22;;;1.77;;
82930;SDS011;72705;53.346;10.248;2023-12-29T06:09:23;5.53;;;2.03;;
82930;SDS011;72705;53.346;10.248;2023-12-29T06:11:49;3.80;;;1.90;;
82930;SDS011;72705;53.346;10.248;2023-12-29T06:14:15;5.32;;;2.28;;
82930;SDS011;72705;53.346;10.248;2023-12-29T06:16:41;7.40;;;2.10;;
82930;SDS011;72705;53.346;10.248;2023-12-29T06:19:07;6.70;;;2.05;;
82930;SDS011;72705;53.346;10.248;2023-12-29T06:21:33;8.70;;;2.55;;
82930;SDS011;72705;53.346;10.248;2023-12-29T06:23:58;5.45;;;2.80;;
82930;SDS011;72705;53.346;10.248;2023-12-29T06:26:24;7.70;;;3.03;;
82930;SDS011;72705;53.346;10.248;2023-12-29T06:28:49;9.07;;;3.08;;
82930;SDS011;72705;53.346;10.248;2023-12-29T06:31:16;7.15;;;3.20;;
82930;SDS011;72705;53.346;10.248;2023-12-29T06:33:42;5.55;;;2.95;;
82930;SDS011;72705;53.346;10.248;2023-12-29T06:36:08;9.70;;;3.97;;
82930;SDS011;72705;53.346;10.248;2023-12-29T06:38:35;9.50;;;4.00;;
82930;SDS011;72705;53.346;10.248;2023-12-29T06:41:01;8.40;;;3.95;;
82930;SDS011;72705;53.346;10.248;2023-12-29T06:43:28;9.15;;;3.60;;
82930;SDS011;72705;53.346;10.248;2023-12-29T06:45:54;8.02;;;3.88;;
82930;SDS011;72705;53.346;10.248;2023-12-29T06:48:20;7.95;;;3.42;;
82930;SDS011;72705;53.346;10.248;2023-12-29T06:50:45;8.70;;;3.70;;
82930;SDS011;72705;53.346;10.248;2023-12-29T06:53:12;15.00;;;4.05;;
82930;SDS011;72705;53.346;10.248;2023-12-29T06:55:38;9.13;;;3.72;;
82930;SDS011;72705;53.346;10.248;2023-12-29T06:58:07;14.80;;;4.57;;
82930;SDS011;72705;53.346;10.248;2023-12-29T07:00:33;11.88;;;4.90;;
82930;SDS011;72705;53.346;10.248;2023-12-29T07:02:59;13.88;;;3.92;;
82930;SDS011;72705;53.346;10.248;2023-12-29T07:05:25;13.73;;;3.72;;
82930;SDS011;72705;53.346;10.248;2023-12-29T07:07:53;9.63;;;3.53;;
82930;SDS011;72705;53.346;10.248;2023-12-29T07:10:18;16.83;;;4.25;;
82930;SDS011;72705;53.346;10.248;2023-12-29T07:12:44;10.82;;;4.57;;
82930;SDS011;72705;53.346;10.248;2023-12-29T07:15:10;11.57;;;4.00;;
82930;SDS011;72705;53.346;10.248;2023-12-29T07:17:38;13.20;;;4.20;;
82930;SDS011;72705;53.346;10.248;2023-12-29T07:20:04;14.48;;;3.63;;
82930;SDS011;72705;53.346;10.248;2023-12-29T07:22:31;22.50;;;6.15;;
82930;SDS011;72705;53.346;10.248;2023-12-29T07:24:58;17.45;;;4.78;;
82930;SDS011;72705;53.346;10.248;2023-12-29T07:27:23;8.45;;;3.20;;
82930;SDS011;72705;53.346;10.248;2023-12-29T07:29:48;9.52;;;3.58;;
82930;SDS011;72705;53.346;10.248;2023-12-29T07:32:15;9.23;;;3.45;;
82930;SDS011;72705;53.346;10.248;2023-12-29T07:34:40;17.38;;;4.22;;
82930;SDS011;72705;53.346;10.248;2023-12-29T07:37:07;10.50;;;3.60;;
82930;SDS011;72705;53.346;10.248;2023-12-29T07:39:35;10.63;;;4.07;;
82930;SDS011;72705;53.346;10.248;2023-12-29T07:44:26;9.27;;;4.03;;
82930;SDS011;72705;53.346;10.248;2023-12-29T07:46:52;8.05;;;3.55;;
82930;SDS011;72705;53.346;10.248;2023-12-29T07:49:17;22.52;;;4.30;;
82930;SDS011;72705;53.346;10.248;2023-12-29T07:51:46;12.75;;;4.28;;
82930;SDS011;72705;53.346;10.248;2023-12-29T07:54:12;17.02;;;4.22;;
82930;SDS011;72705;53.346;10.248;2023-12-29T07:56:37;15.13;;;3.38;;
82930;SDS011;72705;53.346;10.248;2023-12-29T07:59:03;15.85;;;4.32;;
82930;SDS011;72705;53.346;10.248;2023-12-29T08:01:29;8.48;;;2.97;;
82930;SDS011;72705;53.346;10.248;2023-12-29T08:03:54;17.95;;;3.85;;
82930;SDS011;72705;53.346;10.248;2023-12-29T08:06:20;10.43;;;3.22;;
82930;SDS011;72705;53.346;10.248;2023-12-29T08:08:46;12.45;;;3.10;;
82930;SDS011;72705;53.346;10.248;2023-12-29T08:11:15;13.45;;;3.65;;
82930;SDS011;72705;53.346;10.248;2023-12-29T08:13:42;11.23;;;3.15;;
82930;SDS011;72705;53.346;10.248;2023-12-29T08:16:09;21.40;;;3.38;;
82930;SDS011;72705;53.346;10.248;2023-12-29T08:18:35;14.40;;;3.33;;
82930;SDS011;72705;53.346;10.248;2023-12-29T08:21:00;9.90;;;3.45;;
82930;SDS011;72705;53.346;10.248;2023-12-29T08:23:26;11.65;;;3.85;;
82930;SDS011;72705;53.346;10.248;2023-12-29T08:25:52;14.90;;;3.17;;
82930;SDS011;72705;53.346;10.248;2023-12-29T08:28:17;10.50;;;4.13;;
82930;SDS011;72705;53.346;10.248;2023-12-29T08:30:43;14.85;;;3.33;;
82930;SDS011;72705;53.346;10.248;2023-12-29T08:33:11;9.20;;;3.78;;
82930;SDS011;72705;53.346;10.248;2023-12-29T08:35:42;10.18;;;3.10;;
82930;SDS011;72705;53.346;10.248;2023-12-29T08:38:07;10.23;;;3.42;;
82930;SDS011;72705;53.346;10.248;2023-12-29T08:40:33;17.20;;;3.95;;
82930;SDS011;72705;53.346;10.248;2023-12-29T08:42:58;11.57;;;2.88;;
82930;SDS011;72705;53.346;10.248;2023-12-29T08:45:26;8.82;;;2.85;;
82930;SDS011;72705;53.346;10.248;2023-12-29T08:47:51;20.13;;;4.28;;
82930;SDS011;72705;53.346;10.248;2023-12-29T08:50:17;9.50;;;3.37;;
82930;SDS011;72705;53.346;10.248;2023-12-29T08:52:42;16.92;;;3.53;;
82930;SDS011;72705;53.346;10.248;2023-12-29T08:55:10;12.73;;;3.45;;
82930;SDS011;72705;53.346;10.248;2023-12-29T08:57:36;13.02;;;3.47;;
82930;SDS011;72705;53.346;10.248;2023-12-29T09:00:02;10.10;;;3.70;;
82930;SDS011;72705;53.346;10.248;2023-12-29T09:02:27;11.05;;;3.95;;
82930;SDS011;72705;53.346;10.248;2023-12-29T09:04:53;19.33;;;3.63;;
82930;SDS011;72705;53.346;10.248;2023-12-29T09:07:18;12.18;;;3.03;;
82930;SDS011;72705;53.346;10.248;2023-12-29T09:09:44;11.00;;;3.63;;
82930;SDS011;72705;53.346;10.248;2023-12-29T09:12:10;18.05;;;3.55;;
82930;SDS011;72705;53.346;10.248;2023-12-29T09:14:36;11.98;;;3.22;;
82930;SDS011;72705;53.346;10.248;2023-12-29T09:17:01;9.57;;;2.78;;
82930;SDS011;72705;53.346;10.248;2023-12-29T09:19:27;14.55;;;3.63;;
82930;SDS011;72705;53.346;10.248;2023-12-29T09:21:52;14.50;;;3.28;;
82930;SDS011;72705;53.346;10.248;2023-12-29T09:24:18;17.77;;;4.28;;
82930;SDS011;72705;53.346;10.248;2023-12-29T09:26:44;14.55;;;3.55;;
82930;SDS011;72705;53.346;10.248;2023-12-29T09:29:09;14.32;;;3.67;;
82930;SDS011;72705;53.346;10.248;2023-12-29T09:31:35;10.73;;;3.55;;
82930;SDS011;72705;53.346;10.248;2023-12-29T09:34:01;17.50;;;3.35;;
82930;SDS011;72705;53.346;10.248;2023-12-29T09:36:27;10.95;;;3.65;;
82930;SDS011;72705;53.346;10.248;2023-12-29T09:38:53;11.82;;;3.70;;
82930;SDS011;72705;53.346;10.248;2023-12-29T09:41:18;10.63;;;2.92;;
82930;SDS011;72705;53.346;10.248;2023-12-29T09:43:46;17.15;;;5.57;;
82930;SDS011;72705;53.346;10.248;2023-12-29T09:46:16;17.83;;;3.63;;
82930;SDS011;72705;53.346;10.248;2023-12-29T09:48:45;18.10;;;4.00;;
82930;SDS011;72705;53.346;10.248;2023-12-29T09:51:14;16.33;;;4.20;;
82930;SDS011;72705;53.346;10.248;2023-12-29T09:53:41;6.57;;;2.35;;
82930;SDS011;72705;53.346;10.248;2023-12-29T09:56:08;8.77;;;2.50;;
82930;SDS011;72705;53.346;10.248;2023-12-29T09:58:34;9.20;;;2.65;;
82930;SDS011;72705;53.346;10.248;2023-12-29T10:01:06;12.35;;;2.67;;
82930;SDS011;72705;53.346;10.248;2023-12-29T10:06:09;9.30;;;2.45;;
82930;SDS011;72705;53.346;10.248;2023-12-29T10:08:46;8.38;;;2.60;;
82930;SDS011;72705;53.346;10.248;2023-12-29T10:11:15;9.88;;;2.03;;
82930;SDS011;72705;53.346;10.248;2023-12-29T10:13:43;6.13;;;2.42;;
82930;SDS011;72705;53.346;10.248;2023-12-29T10:24:20;19.98;;;3.22;;
82930;SDS011;72705;53.346;10.248;2023-12-29T10:26:47;15.77;;;3.38;;
82930;SDS011;72705;53.346;10.248;2023-12-29T10:29:12;7.45;;;4.22;;
82930;SDS011;72705;53.346;10.248;2023-12-29T10:31:39;11.98;;;3.40;;
82930;SDS011;72705;53.346;10.248;2023-12-29T10:34:22;9.30;;;2.38;;
82930;SDS011;72705;53.346;10.248;2023-12-29T10:36:58;10.20;;;3.83;;
82930;SDS011;72705;53.346;10.248;2023-12-29T10:39:34;7.90;;;2.55;;
82930;SDS011;72705;53.346;10.248;2023-12-29T10:42:24;6.68;;;2.22;;
82930;SDS011;72705;53.346;10.248;2023-12-29T10:44:53;6.35;;;2.13;;
82930;SDS011;72705;53.346;10.248;2023-12-29T10:47:34;8.30;;;2.97;;
82930;SDS011;72705;53.346;10.248;2023-12-29T10:50:10;9.45;;;2.33;;
82930;SDS011;72705;53.346;10.248;2023-12-29T10:52:36;8.55;;;2.20;;
82930;SDS011;72705;53.346;10.248;2023-12-29T10:55:11;7.30;;;2.35;;
82930;SDS011;72705;53.346;10.248;2023-12-29T10:57:39;5.05;;;2.17;;
82930;SDS011;72705;53.346;10.248;2023-12-29T11:00:06;6.00;;;1.65;;
82930;SDS011;72705;53.346;10.248;2023-12-29T11:02:37;4.53;;;1.95;;
82930;SDS011;72705;53.346;10.248;2023-12-29T11:05:08;3.58;;;2.03;;
82930;SDS011;72705;53.346;10.248;2023-12-29T11:07:40;5.65;;;2.00;;
82930;SDS011;72705;53.346;10.248;2023-12-29T11:10:08;3.58;;;1.70;;
82930;SDS011;72705;53.346;10.248;2023-12-29T11:12:37;3.35;;;1.75;;
82930;SDS011;72705;53.346;10.248;2023-12-29T11:15:05;5.38;;;2.10;;
82930;SDS011;72705;53.346;10.248;2023-12-29T11:17:35;4.45;;;1.92;;
82930;SDS011;72705;53.346;10.248;2023-12-29T11:20:01;4.18;;;1.98;;
82930;SDS011;72705;53.346;10.248;2023-12-29T11:22:30;5.85;;;2.13;;
82930;SDS011;72705;53.346;10.248;2023-12-29T11:24:57;8.30;;;2.30;;
82930;SDS011;72705;53.346;10.248;2023-12-29T11:27:30;10.30;;;2.83;;
82930;SDS011;72705;53.346;10.248;2023-12-29T11:29:57;5.68;;;2.28;;
82930;SDS011;72705;53.346;10.248;2023-12-29T11:32:32;6.13;;;2.80;;
82930;SDS011;72705;53.346;10.248;2023-12-29T11:35:13;16.02;;;3.15;;
82930;SDS011;72705;53.346;10.248;2023-12-29T11:38:29;7.93;;;2.40;;
82930;SDS011;72705;53.346;10.248;2023-12-29T11:40:55;11.65;;;2.85;;
82930;SDS011;72705;53.346;10.248;2023-12-29T11:43:24;5.28;;;2.30;;
82930;SDS011;72705;53.346;10.248;2023-12-29T11:45:51;5.55;;;2.30;;
82930;SDS011;72705;53.346;10.248;2023-12-29T11:48:59;10.77;;;2.30;;
82930;SDS011;72705;53.346;10.248;2023-12-29T11:51:31;8.82;;;2.55;;
82930;SDS011;72705;53.346;10.248;2023-12-29T11:54:08;11.15;;;2.65;;
82930;SDS011;72705;53.346;10.248;2023-12-29T11:56:35;5.60;;;1.88;;
82930;SDS011;72705;53.346;10.248;2023-12-29T11:59:18;7.63;;;2.65;;
82930;SDS011;72705;53.346;10.248;2023-12-29T12:01:53;5.72;;;2.10;;
82930;SDS011;72705;53.346;10.248;2023-12-29T12:04:41;7.32;;;2.03;;
82930;SDS011;72705;53.346;10.248;2023-12-29T12:07:07;3.83;;;2.20;;
82930;SDS011;72705;53.346;10.248;2023-12-29T12:12:06;5.95;;;2.03;;
82930;SDS011;72705;53.346;10.248;2023-12-29T12:14:45;5.88;;;1.90;;
82930;SDS011;72705;53.346;10.248;2023-12-29T12:17:28;8.05;;;3.63;;
82930;SDS011;72705;53.346;10.248;2023-12-29T12:20:07;4.82;;;2.22;;
82930;SDS011;72705;53.346;10.248;2023-12-29T12:22:36;9.13;;;2.45;;
82930;SDS011;72705;53.346;10.248;2023-12-29T12:25:02;7.88;;;1.98;;
82930;SDS011;72705;53.346;10.248;2023-12-29T12:27:28;6.22;;;1.80;;
82930;SDS011;72705;53.346;10.248;2023-12-29T12:29:55;7.00;;;2.72;;
82930;SDS011;72705;53.346;10.248;2023-12-29T12:32:23;5.82;;;2.67;;
82930;SDS011;72705;53.346;10.248;2023-12-29T12:34:49;7.10;;;2.38;;
82930;SDS011;72705;53.346;10.248;2023-12-29T12:37:18;4.85;;;2.05;;
82930;SDS011;72705;53.346;10.248;2023-12-29T12:39:48;6.57;;;1.92;;
82930;SDS011;72705;53.346;10.248;2023-12-29T12:42:14;8.52;;;2.20;;
82930;SDS011;72705;53.346;10.248;2023-12-29T12:44:41;5.85;;;2.30;;
82930;SDS011;72705;53.346;10.248;2023-12-29T12:47:14;8.30;;;2.20;;
82930;SDS011;72705;53.346;10.248;2023-12-29T12:49:42;4.60;;;1.73;;
82930;SDS011;72705;53.346;10.248;2023-12-29T12:52:08;4.90;;;2.45;;
82930;SDS011;72705;53.346;10.248;2023-12-29T12:54:34;7.32;;;1.98;;
82930;SDS011;72705;53.346;10.248;2023-12-29T12:56:59;3.90;;;1.70;;
82930;SDS011;72705;53.346;10.248;2023-12-29T12:59:25;7.82;;;2.65;;
82930;SDS011;72705;53.346;10.248;2023-12-29T13:01:52;5.97;;;2.10;;
82930;SDS011;72705;53.346;10.248;2023-12-29T13:04:18;5.55;;;1.80;;
82930;SDS011;72705;53.346;10.248;2023-12-29T13:06:44;6.20;;;1.92;;
82930;SDS011;72705;53.346;10.248;2023-12-29T13:09:10;5.18;;;2.05;;
82930;SDS011;72705;53.346;10.248;2023-12-29T13:11:38;6.93;;;2.40;;
82930;SDS011;72705;53.346;10.248;2023-12-29T13:14:05;4.35;;;2.88;;
82930;SDS011;72705;53.346;10.248;2023-12-29T13:16:33;4.88;;;1.80;;
82930;SDS011;72705;53.346;10.248;2023-12-29T13:19:17;4.78;;;2.10;;
82930;SDS011;72705;53.346;10.248;2023-12-29T13:21:47;4.97;;;1.95;;
82930;SDS011;72705;53.346;10.248;2023-12-29T13:24:20;5.25;;;1.70;;
82930;SDS011;72705;53.346;10.248;2023-12-29T13:26:50;2.53;;;1.92;;
82930;SDS011;72705;53.346;10.248;2023-12-29T13:29:17;5.43;;;1.58;;
82930;SDS011;72705;53.346;10.248;2023-12-29T13:31:46;5.95;;;1.80;;
82930;SDS011;72705;53.346;10.248;2023-12-29T13:34:21;4.22;;;1.83;;
82930;SDS011;72705;53.346;10.248;2023-12-29T13:37:01;2.15;;;1.55;;
82930;SDS011;72705;53.346;10.248;2023-12-29T13:39:43;3.13;;;1.50;;
82930;SDS011;72705;53.346;10.248;2023-12-29T13:42:19;2.83;;;1.80;;
82930;SDS011;72705;53.346;10.248;2023-12-29T13:44:47;6.93;;;1.90;;
82930;SDS011;72705;53.346;10.248;2023-12-29T13:47:14;3.85;;;1.90;;
82930;SDS011;72705;53.346;10.248;2023-12-29T13:49:40;6.15;;;1.80;;
82930;SDS011;72705;53.346;10.248;2023-12-29T13:52:06;6.47;;;1.90;;
82930;SDS011;72705;53.346;10.248;2023-12-29T13:54:40;6.25;;;2.20;;
82930;SDS011;72705;53.346;10.248;2023-12-29T13:57:08;8.00;;;1.80;;
82930;SDS011;72705;53.346;10.248;2023-12-29T13:59:34;5.35;;;1.70;;
82930;SDS011;72705;53.346;10.248;2023-12-29T14:05:14;5.05;;;2.00;;
82930;SDS011;72705;53.346;10.248;2023-12-29T14:10:35;9.82;;;2.22;;
82930;SDS011;72705;53.346;10.248;2023-12-29T14:13:08;7.40;;;2.10;;
82930;SDS011;72705;53.346;10.248;2023-12-29T14:15:37;8.98;;;2.97;;
82930;SDS011;72705;53.346;10.248;2023-12-29T14:18:10;8.00;;;2.03;;
82930;SDS011;72705;53.346;10.248;2023-12-29T14:21:00;8.82;;;2.40;;
82930;SDS011;72705;53.346;10.248;2023-12-29T14:23:26;8.00;;;2.65;;
82930;SDS011;72705;53.346;10.248;2023-12-29T14:25:51;8.90;;;2.42;;
82930;SDS011;72705;53.346;10.248;2023-12-29T14:28:18;9.60;;;2.17;;
82930;SDS011;72705;53.346;10.248;2023-12-29T14:30:44;7.00;;;2.42;;
82930;SDS011;72705;53.346;10.248;2023-12-29T14:33:10;9.93;;;2.53;;
82930;SDS011;72705;53.346;10.248;2023-12-29T14:35:36;13.05;;;2.55;;
82930;SDS011;72705;53.346;10.248;2023-12-29T14:38:01;9.27;;;1.92;;
82930;SDS011;72705;53.346;10.248;2023-12-29T14:40:27;8.10;;;2.47;;
82930;SDS011;72705;53.346;10.248;2023-12-29T14:42:53;5.72;;;2.20;;
82930;SDS011;72705;53.346;10.248;2023-12-29T14:45:18;14.98;;;3.20;;
82930;SDS011;72705;53.346;10.248;2023-12-29T14:47:44;13.20;;;2.80;;
82930;SDS011;72705;53.346;10.248;2023-12-29T14:50:11;5.75;;;2.22;;
82930;SDS011;72705;53.346;10.248;2023-12-29T14:52:37;7.85;;;2.35;;
82930;SDS011;72705;53.346;10.248;2023-12-29T14:55:02;11.20;;;2.83;;
82930;SDS011;72705;53.346;10.248;2023-12-29T14:57:28;8.65;;;2.60;;
82930;SDS011;72705;53.346;10.248;2023-12-29T14:59:53;9.52;;;2.88;;